sensor_id;sensor_type;location;lat;lon;timestamp;temperature;humidity
6954;DHT22;3516;47.980;8.808;2022-07-23T00:01:29;27.30;56.50
6954;DHT22;3516;47.980;8.808;2022-07-23T00:03:55;27.30;56.70
6954;DHT22;3516;47.980;8.808;2022-07-23T00:06:22;27.30;56.80
6954;DHT22;3516;47.980;8.808;2022-07-23T00:08:49;27.30;57.10
6954;DHT22;3516;47.980;8.808;2022-07-23T00:11:16;27.30;57.40
6954;DHT22;3516;47.980;8.808;2022-07-23T00:13:42;27.30;57.40
6954;DHT22;3516;47.980;8.808;2022-07-23T00:16:09;27.30;57.40
6954;DHT22;3516;47.980;8.808;2022-07-23T00:18:37;27.30;57.50
6954;DHT22;3516;47.980;8.808;2022-07-23T00:21:04;27.30;57.60
6954;DHT22;3516;47.980;8.808;2022-07-23T00:23:31;27.30;57.80
6954;DHT22;3516;47.980;8.808;2022-07-23T00:25:57;27.30;58.00
6954;DHT22;3516;47.980;8.808;2022-07-23T00:28:24;27.30;58.10
6954;DHT22;3516;47.980;8.808;2022-07-23T00:30:51;27.30;58.30
6954;DHT22;3516;47.980;8.808;2022-07-23T00:33:17;27.30;58.40
6954;DHT22;3516;47.980;8.808;2022-07-23T00:35:45;27.30;58.60
6954;DHT22;3516;47.980;8.808;2022-07-23T00:38:12;27.30;58.70
6954;DHT22;3516;47.980;8.808;2022-07-23T00:40:39;27.30;58.80
6954;DHT22;3516;47.980;8.808;2022-07-23T00:43:06;27.30;59.00
6954;DHT22;3516;47.980;8.808;2022-07-23T00:45:33;27.30;59.10
6954;DHT22;3516;47.980;8.808;2022-07-23T00:47:59;27.30;59.30
6954;DHT22;3516;47.980;8.808;2022-07-23T00:50:26;27.30;59.40
6954;DHT22;3516;47.980;8.808;2022-07-23T00:52:55;27.20;59.50
6954;DHT22;3516;47.980;8.808;2022-07-23T00:55:22;27.30;59.70
6954;DHT22;3516;47.980;8.808;2022-07-23T00:57:49;27.20;59.80
6954;DHT22;3516;47.980;8.808;2022-07-23T01:00:17;27.30;60.00
6954;DHT22;3516;47.980;8.808;2022-07-23T01:02:44;27.30;60.10
6954;DHT22;3516;47.980;8.808;2022-07-23T01:05:10;27.30;60.20
6954;DHT22;3516;47.980;8.808;2022-07-23T01:07:40;27.20;60.40
6954;DHT22;3516;47.980;8.808;2022-07-23T01:10:09;27.20;60.50
6954;DHT22;3516;47.980;8.808;2022-07-23T01:12:49;27.20;60.70
6954;DHT22;3516;47.980;8.808;2022-07-23T01:15:16;27.20;60.80
6954;DHT22;3516;47.980;8.808;2022-07-23T01:17:43;27.20;61.70
6954;DHT22;3516;47.980;8.808;2022-07-23T01:20:09;27.20;61.00
6954;DHT22;3516;47.980;8.808;2022-07-23T01:22:37;27.20;61.20
6954;DHT22;3516;47.980;8.808;2022-07-23T01:25:04;27.20;61.30
6954;DHT22;3516;47.980;8.808;2022-07-23T01:27:31;27.20;61.50
6954;DHT22;3516;47.980;8.808;2022-07-23T01:29:59;27.20;61.60
6954;DHT22;3516;47.980;8.808;2022-07-23T01:32:26;27.20;61.70
6954;DHT22;3516;47.980;8.808;2022-07-23T01:34:53;27.20;61.80
6954;DHT22;3516;47.980;8.808;2022-07-23T01:37:20;27.20;62.00
6954;DHT22;3516;47.980;8.808;2022-07-23T01:39:48;27.20;62.10
6954;DHT22;3516;47.980;8.808;2022-07-23T01:42:15;27.20;62.30
6954;DHT22;3516;47.980;8.808;2022-07-23T01:44:41;27.20;62.40
6954;DHT22;3516;47.980;8.808;2022-07-23T01:47:08;27.20;62.70
6954;DHT22;3516;47.980;8.808;2022-07-23T01:49:35;27.20;62.80
6954;DHT22;3516;47.980;8.808;2022-07-23T01:52:02;27.20;62.80
6954;DHT22;3516;47.980;8.808;2022-07-23T01:54:32;27.20;62.80
6954;DHT22;3516;47.980;8.808;2022-07-23T01:57:01;27.20;62.80
6954;DHT22;3516;47.980;8.808;2022-07-23T01:59:27;27.20;62.80
6954;DHT22;3516;47.980;8.808;2022-07-23T02:01:54;27.20;62.80
6954;DHT22;3516;47.980;8.808;2022-07-23T02:04:21;27.20;62.80
6954;DHT22;3516;47.980;8.808;2022-07-23T02:06:49;27.20;62.80
6954;DHT22;3516;47.980;8.808;2022-07-23T02:09:15;27.20;63.00
6954;DHT22;3516;47.980;8.808;2022-07-23T02:11:42;27.20;63.20
6954;DHT22;3516;47.980;8.808;2022-07-23T02:14:10;27.20;63.40
6954;DHT22;3516;47.980;8.808;2022-07-23T02:16:37;27.20;63.40
6954;DHT22;3516;47.980;8.808;2022-07-23T02:19:04;27.20;63.50
6954;DHT22;3516;47.980;8.808;2022-07-23T02:21:31;27.20;63.70
6954;DHT22;3516;47.980;8.808;2022-07-23T02:23:57;27.20;63.80
6954;DHT22;3516;47.980;8.808;2022-07-23T02:26:24;27.20;63.90
6954;DHT22;3516;47.980;8.808;2022-07-23T02:28:51;27.20;63.90
6954;DHT22;3516;47.980;8.808;2022-07-23T02:31:19;27.20;64.00
6954;DHT22;3516;47.980;8.808;2022-07-23T02:33:46;27.20;64.10
6954;DHT22;3516;47.980;8.808;2022-07-23T02:36:12;27.20;64.20
6954;DHT22;3516;47.980;8.808;2022-07-23T02:38:39;27.20;64.30
6954;DHT22;3516;47.980;8.808;2022-07-23T02:41:06;27.20;64.40
6954;DHT22;3516;47.980;8.808;2022-07-23T02:43:32;27.20;64.40
6954;DHT22;3516;47.980;8.808;2022-07-23T02:45:59;27.20;64.60
6954;DHT22;3516;47.980;8.808;2022-07-23T02:48:28;27.20;64.70
6954;DHT22;3516;47.980;8.808;2022-07-23T02:50:55;27.20;64.70
6954;DHT22;3516;47.980;8.808;2022-07-23T02:53:22;27.20;64.80
6954;DHT22;3516;47.980;8.808;2022-07-23T02:55:48;27.20;64.90
6954;DHT22;3516;47.980;8.808;2022-07-23T02:58:15;27.20;65.10
6954;DHT22;3516;47.980;8.808;2022-07-23T03:00:42;27.20;65.20
6954;DHT22;3516;47.980;8.808;2022-07-23T03:03:08;27.20;65.30
6954;DHT22;3516;47.980;8.808;2022-07-23T03:05:36;27.20;65.40
6954;DHT22;3516;47.980;8.808;2022-07-23T03:08:03;27.20;65.50
6954;DHT22;3516;47.980;8.808;2022-07-23T03:10:30;27.20;65.60
6954;DHT22;3516;47.980;8.808;2022-07-23T03:12:57;27.20;65.70
6954;DHT22;3516;47.980;8.808;2022-07-23T03:15:23;27.20;65.80
6954;DHT22;3516;47.980;8.808;2022-07-23T03:17:50;27.20;66.00
6954;DHT22;3516;47.980;8.808;2022-07-23T03:20:16;27.20;66.00
6954;DHT22;3516;47.980;8.808;2022-07-23T03:22:44;27.20;66.10
6954;DHT22;3516;47.980;8.808;2022-07-23T03:25:11;27.20;66.20
6954;DHT22;3516;47.980;8.808;2022-07-23T03:27:38;27.20;66.30
6954;DHT22;3516;47.980;8.808;2022-07-23T03:30:05;27.20;66.30
6954;DHT22;3516;47.980;8.808;2022-07-23T03:32:32;27.20;66.50
6954;DHT22;3516;47.980;8.808;2022-07-23T03:34:58;27.20;66.60
6954;DHT22;3516;47.980;8.808;2022-07-23T03:37:25;27.20;66.70
6954;DHT22;3516;47.980;8.808;2022-07-23T03:39:53;27.20;66.90
6954;DHT22;3516;47.980;8.808;2022-07-23T03:42:20;27.20;66.90
6954;DHT22;3516;47.980;8.808;2022-07-23T03:44:47;27.20;67.00
6954;DHT22;3516;47.980;8.808;2022-07-23T03:47:13;27.20;67.10
6954;DHT22;3516;47.980;8.808;2022-07-23T03:49:42;27.20;67.20
6954;DHT22;3516;47.980;8.808;2022-07-23T03:52:09;27.20;67.30
6954;DHT22;3516;47.980;8.808;2022-07-23T03:54:35;27.20;67.40
6954;DHT22;3516;47.980;8.808;2022-07-23T03:57:03;27.20;67.50
6954;DHT22;3516;47.980;8.808;2022-07-23T03:59:30;27.20;67.60
6954;DHT22;3516;47.980;8.808;2022-07-23T04:01:57;27.20;67.70
6954;DHT22;3516;47.980;8.808;2022-07-23T04:04:23;27.20;67.80
6954;DHT22;3516;47.980;8.808;2022-07-23T04:06:50;27.20;67.90
6954;DHT22;3516;47.980;8.808;2022-07-23T04:09:17;27.20;68.00
6954;DHT22;3516;47.980;8.808;2022-07-23T04:11:43;27.20;68.10
6954;DHT22;3516;47.980;8.808;2022-07-23T04:14:11;27.20;68.20
6954;DHT22;3516;47.980;8.808;2022-07-23T04:16:38;27.20;68.30
6954;DHT22;3516;47.980;8.808;2022-07-23T04:19:05;27.20;68.50
6954;DHT22;3516;47.980;8.808;2022-07-23T04:21:31;27.20;68.60
6954;DHT22;3516;47.980;8.808;2022-07-23T04:23:58;27.20;68.70
6954;DHT22;3516;47.980;8.808;2022-07-23T04:26:25;27.20;68.90
6954;DHT22;3516;47.980;8.808;2022-07-23T04:28:51;27.20;68.90
6954;DHT22;3516;47.980;8.808;2022-07-23T04:31:19;27.20;68.90
6954;DHT22;3516;47.980;8.808;2022-07-23T04:33:46;27.20;69.00
6954;DHT22;3516;47.980;8.808;2022-07-23T04:36:13;27.20;68.90
6954;DHT22;3516;47.980;8.808;2022-07-23T04:38:39;27.20;68.90
6954;DHT22;3516;47.980;8.808;2022-07-23T04:41:06;27.20;68.90
6954;DHT22;3516;47.980;8.808;2022-07-23T04:43:32;27.20;68.90
6954;DHT22;3516;47.980;8.808;2022-07-23T04:45:59;27.20;68.90
6954;DHT22;3516;47.980;8.808;2022-07-23T04:48:27;27.20;69.10
6954;DHT22;3516;47.980;8.808;2022-07-23T04:50:54;27.20;69.20
6954;DHT22;3516;47.980;8.808;2022-07-23T04:53:20;27.20;69.30
6954;DHT22;3516;47.980;8.808;2022-07-23T04:55:47;27.20;69.50
6954;DHT22;3516;47.980;8.808;2022-07-23T04:58:14;27.20;69.50
6954;DHT22;3516;47.980;8.808;2022-07-23T05:00:40;27.20;69.60
6954;DHT22;3516;47.980;8.808;2022-07-23T05:03:07;27.20;69.70
6954;DHT22;3516;47.980;8.808;2022-07-23T05:05:35;27.20;69.80
6954;DHT22;3516;47.980;8.808;2022-07-23T05:08:02;27.20;69.90
6954;DHT22;3516;47.980;8.808;2022-07-23T05:10:29;27.20;70.00
6954;DHT22;3516;47.980;8.808;2022-07-23T05:12:55;27.20;70.10
6954;DHT22;3516;47.980;8.808;2022-07-23T05:15:22;27.20;70.10
6954;DHT22;3516;47.980;8.808;2022-07-23T05:17:49;27.20;70.30
6954;DHT22;3516;47.980;8.808;2022-07-23T05:20:16;27.20;70.30
6954;DHT22;3516;47.980;8.808;2022-07-23T05:22:44;27.20;70.40
6954;DHT22;3516;47.980;8.808;2022-07-23T05:25:10;27.20;70.40
6954;DHT22;3516;47.980;8.808;2022-07-23T05:27:37;27.20;70.40
6954;DHT22;3516;47.980;8.808;2022-07-23T05:30:04;27.10;70.40
6954;DHT22;3516;47.980;8.808;2022-07-23T05:32:31;27.10;70.50
6954;DHT22;3516;47.980;8.808;2022-07-23T05:34:58;27.20;70.70
6954;DHT22;3516;47.980;8.808;2022-07-23T05:37:24;27.20;70.80
6954;DHT22;3516;47.980;8.808;2022-07-23T05:39:52;27.10;70.80
6954;DHT22;3516;47.980;8.808;2022-07-23T05:42:19;27.20;70.90
6954;DHT22;3516;47.980;8.808;2022-07-23T05:44:46;27.20;71.00
6954;DHT22;3516;47.980;8.808;2022-07-23T05:47:12;27.20;71.00
6954;DHT22;3516;47.980;8.808;2022-07-23T05:49:39;27.20;71.10
6954;DHT22;3516;47.980;8.808;2022-07-23T05:52:06;27.20;71.20
6954;DHT22;3516;47.980;8.808;2022-07-23T05:54:33;27.10;71.20
6954;DHT22;3516;47.980;8.808;2022-07-23T05:57:02;27.10;71.20
6954;DHT22;3516;47.980;8.808;2022-07-23T05:59:28;27.10;71.30
6954;DHT22;3516;47.980;8.808;2022-07-23T06:01:55;27.10;71.30
6954;DHT22;3516;47.980;8.808;2022-07-23T06:04:22;27.10;71.40
6954;DHT22;3516;47.980;8.808;2022-07-23T06:06:48;27.10;71.40
6954;DHT22;3516;47.980;8.808;2022-07-23T06:09:15;27.10;71.50
6954;DHT22;3516;47.980;8.808;2022-07-23T06:11:42;27.10;71.50
6954;DHT22;3516;47.980;8.808;2022-07-23T06:14:10;27.10;71.60
6954;DHT22;3516;47.980;8.808;2022-07-23T06:16:36;27.10;71.70
6954;DHT22;3516;47.980;8.808;2022-07-23T06:19:03;27.10;71.70
6954;DHT22;3516;47.980;8.808;2022-07-23T06:21:30;27.10;71.80
6954;DHT22;3516;47.980;8.808;2022-07-23T06:23:56;27.10;71.90
6954;DHT22;3516;47.980;8.808;2022-07-23T06:26:23;27.20;72.10
6954;DHT22;3516;47.980;8.808;2022-07-23T06:28:50;27.10;72.00
6954;DHT22;3516;47.980;8.808;2022-07-23T06:31:18;27.20;72.20
6954;DHT22;3516;47.980;8.808;2022-07-23T06:33:44;27.10;72.20
6954;DHT22;3516;47.980;8.808;2022-07-23T06:36:13;27.20;72.40
6954;DHT22;3516;47.980;8.808;2022-07-23T06:38:40;27.20;72.50
6954;DHT22;3516;47.980;8.808;2022-07-23T06:41:06;27.20;72.60
6954;DHT22;3516;47.980;8.808;2022-07-23T06:43:33;27.20;72.60
6954;DHT22;3516;47.980;8.808;2022-07-23T06:46:00;27.20;72.70
6954;DHT22;3516;47.980;8.808;2022-07-23T06:48:28;27.20;72.80
6954;DHT22;3516;47.980;8.808;2022-07-23T06:50:54;27.20;72.90
6954;DHT22;3516;47.980;8.808;2022-07-23T06:53:21;27.20;73.00
6954;DHT22;3516;47.980;8.808;2022-07-23T06:55:48;27.20;73.00
6954;DHT22;3516;47.980;8.808;2022-07-23T06:58:14;27.20;73.10
6954;DHT22;3516;47.980;8.808;2022-07-23T07:00:41;27.20;73.20
6954;DHT22;3516;47.980;8.808;2022-07-23T07:03:08;27.20;73.30
6954;DHT22;3516;47.980;8.808;2022-07-23T07:05:36;27.20;73.40
6954;DHT22;3516;47.980;8.808;2022-07-23T07:08:02;27.20;73.50
6954;DHT22;3516;47.980;8.808;2022-07-23T07:10:29;27.20;73.70
6954;DHT22;3516;47.980;8.808;2022-07-23T07:12:56;27.20;73.80
6954;DHT22;3516;47.980;8.808;2022-07-23T07:15:22;27.20;73.90
6954;DHT22;3516;47.980;8.808;2022-07-23T07:17:49;27.20;73.90
6954;DHT22;3516;47.980;8.808;2022-07-23T07:20:16;27.20;74.10
6954;DHT22;3516;47.980;8.808;2022-07-23T07:22:44;27.20;74.20
6954;DHT22;3516;47.980;8.808;2022-07-23T07:25:10;27.20;74.30
6954;DHT22;3516;47.980;8.808;2022-07-23T07:27:38;27.20;74.40
6954;DHT22;3516;47.980;8.808;2022-07-23T07:30:05;27.20;74.50
6954;DHT22;3516;47.980;8.808;2022-07-23T07:32:32;27.20;74.60
6954;DHT22;3516;47.980;8.808;2022-07-23T07:34:59;27.20;74.80
6954;DHT22;3516;47.980;8.808;2022-07-23T07:37:26;27.20;74.80
6954;DHT22;3516;47.980;8.808;2022-07-23T07:39:54;27.20;74.90
6954;DHT22;3516;47.980;8.808;2022-07-23T07:42:21;27.20;75.00
6954;DHT22;3516;47.980;8.808;2022-07-23T07:44:47;27.20;74.90
6954;DHT22;3516;47.980;8.808;2022-07-23T07:47:14;27.20;74.90
6954;DHT22;3516;47.980;8.808;2022-07-23T07:49:41;27.20;74.90
6954;DHT22;3516;47.980;8.808;2022-07-23T07:52:08;27.20;74.90
6954;DHT22;3516;47.980;8.808;2022-07-23T07:54:35;27.20;75.00
6954;DHT22;3516;47.980;8.808;2022-07-23T07:57:03;27.20;75.30
6954;DHT22;3516;47.980;8.808;2022-07-23T07:59:29;27.20;75.60
6954;DHT22;3516;47.980;8.808;2022-07-23T08:01:56;27.20;75.80
6954;DHT22;3516;47.980;8.808;2022-07-23T08:04:23;27.20;76.00
6954;DHT22;3516;47.980;8.808;2022-07-23T08:06:49;27.20;76.10
6954;DHT22;3516;47.980;8.808;2022-07-23T08:09:16;27.20;76.40
6954;DHT22;3516;47.980;8.808;2022-07-23T08:11:43;27.20;76.50
6954;DHT22;3516;47.980;8.808;2022-07-23T08:14:11;27.20;76.50
6954;DHT22;3516;47.980;8.808;2022-07-23T08:16:37;27.20;76.70
6954;DHT22;3516;47.980;8.808;2022-07-23T08:19:04;27.20;76.90
6954;DHT22;3516;47.980;8.808;2022-07-23T08:21:31;27.20;77.00
6954;DHT22;3516;47.980;8.808;2022-07-23T08:23:57;27.20;77.20
6954;DHT22;3516;47.980;8.808;2022-07-23T08:26:24;27.20;77.40
6954;DHT22;3516;47.980;8.808;2022-07-23T08:28:51;27.20;77.60
6954;DHT22;3516;47.980;8.808;2022-07-23T08:31:19;27.20;77.80
6954;DHT22;3516;47.980;8.808;2022-07-23T08:33:45;27.20;78.00
6954;DHT22;3516;47.980;8.808;2022-07-23T08:36:12;27.20;78.20
6954;DHT22;3516;47.980;8.808;2022-07-23T08:38:39;27.20;78.40
6954;DHT22;3516;47.980;8.808;2022-07-23T08:41:05;27.20;78.50
6954;DHT22;3516;47.980;8.808;2022-07-23T08:43:33;27.20;78.50
6954;DHT22;3516;47.980;8.808;2022-07-23T08:46:01;27.20;78.70
6954;DHT22;3516;47.980;8.808;2022-07-23T08:48:31;27.20;78.70
6954;DHT22;3516;47.980;8.808;2022-07-23T08:50:58;27.20;78.80
6954;DHT22;3516;47.980;8.808;2022-07-23T08:53:26;27.20;78.90
6954;DHT22;3516;47.980;8.808;2022-07-23T08:55:54;27.20;79.00
6954;DHT22;3516;47.980;8.808;2022-07-23T08:58:21;27.20;79.10
6954;DHT22;3516;47.980;8.808;2022-07-23T09:00:48;27.20;79.20
6954;DHT22;3516;47.980;8.808;2022-07-23T09:03:15;27.20;79.30
6954;DHT22;3516;47.980;8.808;2022-07-23T09:05:44;27.20;79.40
6954;DHT22;3516;47.980;8.808;2022-07-23T09:08:11;27.20;79.50
6954;DHT22;3516;47.980;8.808;2022-07-23T13:07:16;27.20;74.90
6954;DHT22;3516;47.980;8.808;2022-07-23T13:09:44;27.20;74.90
6954;DHT22;3516;47.980;8.808;2022-07-23T13:12:10;27.20;74.90
6954;DHT22;3516;47.980;8.808;2022-07-23T13:14:37;27.20;74.90
6954;DHT22;3516;47.980;8.808;2022-07-23T13:17:04;27.20;74.90
6954;DHT22;3516;47.980;8.808;2022-07-23T13:19:31;27.30;75.00
6954;DHT22;3516;47.980;8.808;2022-07-23T13:21:58;27.20;74.90
6954;DHT22;3516;47.980;8.808;2022-07-23T13:24:26;27.20;74.90
6954;DHT22;3516;47.980;8.808;2022-07-23T13:26:52;27.30;75.00
6954;DHT22;3516;47.980;8.808;2022-07-23T13:29:19;27.30;75.00
6954;DHT22;3516;47.980;8.808;2022-07-23T13:31:46;27.30;74.90
6954;DHT22;3516;47.980;8.808;2022-07-23T13:34:13;27.30;75.00
6954;DHT22;3516;47.980;8.808;2022-07-23T13:36:40;27.30;75.00
6954;DHT22;3516;47.980;8.808;2022-07-23T13:39:08;27.30;75.00
6954;DHT22;3516;47.980;8.808;2022-07-23T13:41:37;27.30;75.00
6954;DHT22;3516;47.980;8.808;2022-07-23T13:44:04;27.30;75.00
6954;DHT22;3516;47.980;8.808;2022-07-23T13:46:30;27.30;75.00
6954;DHT22;3516;47.980;8.808;2022-07-23T13:48:57;27.30;75.00
6954;DHT22;3516;47.980;8.808;2022-07-23T13:51:24;27.40;75.10
6954;DHT22;3516;47.980;8.808;2022-07-23T13:53:50;27.40;75.10
6954;DHT22;3516;47.980;8.808;2022-07-23T13:56:17;27.40;75.10
6954;DHT22;3516;47.980;8.808;2022-07-23T13:58:46;27.40;75.10
6954;DHT22;3516;47.980;8.808;2022-07-23T14:01:13;27.40;75.10
6954;DHT22;3516;47.980;8.808;2022-07-23T14:03:40;27.40;75.10
6954;DHT22;3516;47.980;8.808;2022-07-23T14:06:07;27.40;75.10
6954;DHT22;3516;47.980;8.808;2022-07-23T14:08:34;27.40;75.10
6954;DHT22;3516;47.980;8.808;2022-07-23T14:11:02;27.40;75.10
6954;DHT22;3516;47.980;8.808;2022-07-23T14:13:29;27.40;75.10
6954;DHT22;3516;47.980;8.808;2022-07-23T14:15:57;27.50;75.20
6954;DHT22;3516;47.980;8.808;2022-07-23T14:18:23;27.40;75.10
6954;DHT22;3516;47.980;8.808;2022-07-23T14:20:50;27.40;75.10
6954;DHT22;3516;47.980;8.808;2022-07-23T14:23:17;27.40;75.10
6954;DHT22;3516;47.980;8.808;2022-07-23T14:25:43;27.40;75.10
6954;DHT22;3516;47.980;8.808;2022-07-23T14:28:10;27.40;75.10
6954;DHT22;3516;47.980;8.808;2022-07-23T14:30:38;27.50;75.40
6954;DHT22;3516;47.980;8.808;2022-07-23T14:33:06;27.50;75.40
6954;DHT22;3516;47.980;8.808;2022-07-23T14:35:32;27.40;75.40
6954;DHT22;3516;47.980;8.808;2022-07-23T14:38:00;27.50;75.50
6954;DHT22;3516;47.980;8.808;2022-07-23T14:40:27;27.40;75.40
6954;DHT22;3516;47.980;8.808;2022-07-23T14:42:54;27.50;75.50
6954;DHT22;3516;47.980;8.808;2022-07-23T14:45:20;27.40;75.50
6954;DHT22;3516;47.980;8.808;2022-07-23T14:47:47;27.40;75.50
6954;DHT22;3516;47.980;8.808;2022-07-23T14:50:16;27.40;75.50
6954;DHT22;3516;47.980;8.808;2022-07-23T14:52:43;27.40;75.60
6954;DHT22;3516;47.980;8.808;2022-07-23T14:55:09;27.40;75.50
6954;DHT22;3516;47.980;8.808;2022-07-23T14:57:36;27.40;75.60
6954;DHT22;3516;47.980;8.808;2022-07-23T15:00:03;27.40;75.60
6954;DHT22;3516;47.980;8.808;2022-07-23T15:02:31;27.50;75.70
6954;DHT22;3516;47.980;8.808;2022-07-23T15:04:57;27.40;75.70
6954;DHT22;3516;47.980;8.808;2022-07-23T15:07:27;27.40;75.80
6954;DHT22;3516;47.980;8.808;2022-07-23T15:09:54;27.40;75.80
6954;DHT22;3516;47.980;8.808;2022-07-23T15:12:21;27.40;75.80
6954;DHT22;3516;47.980;8.808;2022-07-23T15:14:47;27.40;75.80
6954;DHT22;3516;47.980;8.808;2022-07-23T15:17:14;27.40;75.90
6954;DHT22;3516;47.980;8.808;2022-07-23T15:19:41;27.40;75.90
6954;DHT22;3516;47.980;8.808;2022-07-23T15:22:07;27.40;75.90
6954;DHT22;3516;47.980;8.808;2022-07-23T15:24:35;27.40;75.90
6954;DHT22;3516;47.980;8.808;2022-07-23T15:27:02;27.40;76.00
6954;DHT22;3516;47.980;8.808;2022-07-23T15:29:29;27.40;76.00
6954;DHT22;3516;47.980;8.808;2022-07-23T15:31:55;27.40;76.10
6954;DHT22;3516;47.980;8.808;2022-07-23T15:34:22;27.40;76.20
6954;DHT22;3516;47.980;8.808;2022-07-23T15:36:49;27.40;76.20
6954;DHT22;3516;47.980;8.808;2022-07-23T15:39:15;27.40;76.30
6954;DHT22;3516;47.980;8.808;2022-07-23T15:41:43;27.40;76.30
6954;DHT22;3516;47.980;8.808;2022-07-23T15:44:10;27.40;76.40
6954;DHT22;3516;47.980;8.808;2022-07-23T15:46:37;27.40;76.40
6954;DHT22;3516;47.980;8.808;2022-07-23T15:49:03;27.40;76.50
6954;DHT22;3516;47.980;8.808;2022-07-23T15:51:30;27.40;76.60
6954;DHT22;3516;47.980;8.808;2022-07-23T15:53:57;27.40;76.70
6954;DHT22;3516;47.980;8.808;2022-07-23T15:56:23;27.40;76.70
6954;DHT22;3516;47.980;8.808;2022-07-23T15:58:51;27.40;76.70
6954;DHT22;3516;47.980;8.808;2022-07-23T16:01:18;27.40;76.80
6954;DHT22;3516;47.980;8.808;2022-07-23T16:03:45;27.40;76.80
6954;DHT22;3516;47.980;8.808;2022-07-23T16:06:12;27.40;77.60
6954;DHT22;3516;47.980;8.808;2022-07-23T16:08:39;27.40;77.00
6954;DHT22;3516;47.980;8.808;2022-07-23T16:11:05;27.40;77.00
6954;DHT22;3516;47.980;8.808;2022-07-23T16:13:32;27.40;77.10
6954;DHT22;3516;47.980;8.808;2022-07-23T16:16:01;27.40;77.10
6954;DHT22;3516;47.980;8.808;2022-07-23T16:18:29;27.40;77.30
6954;DHT22;3516;47.980;8.808;2022-07-23T16:20:56;27.40;77.30
6954;DHT22;3516;47.980;8.808;2022-07-23T16:23:23;27.40;77.40
6954;DHT22;3516;47.980;8.808;2022-07-23T16:25:49;27.40;77.40
6954;DHT22;3516;47.980;8.808;2022-07-23T16:28:16;27.40;77.60
6954;DHT22;3516;47.980;8.808;2022-07-23T16:30:43;27.40;77.70
6954;DHT22;3516;47.980;8.808;2022-07-23T16:33:11;27.40;77.80
6954;DHT22;3516;47.980;8.808;2022-07-23T16:35:38;27.40;77.90
6954;DHT22;3516;47.980;8.808;2022-07-23T16:38:04;27.50;78.10
6954;DHT22;3516;47.980;8.808;2022-07-23T16:40:31;27.50;78.20
6954;DHT22;3516;47.980;8.808;2022-07-23T16:42:59;27.40;78.20
6954;DHT22;3516;47.980;8.808;2022-07-23T16:45:25;27.50;78.40
6954;DHT22;3516;47.980;8.808;2022-07-23T16:47:52;27.50;78.50
6954;DHT22;3516;47.980;8.808;2022-07-23T16:50:20;27.40;78.50
6954;DHT22;3516;47.980;8.808;2022-07-23T16:52:47;27.50;78.70
6954;DHT22;3516;47.980;8.808;2022-07-23T16:55:14;27.50;78.80
6954;DHT22;3516;47.980;8.808;2022-07-23T16:57:41;27.40;78.90
6954;DHT22;3516;47.980;8.808;2022-07-23T17:00:08;27.50;79.10
6954;DHT22;3516;47.980;8.808;2022-07-23T17:02:36;27.50;79.30
6954;DHT22;3516;47.980;8.808;2022-07-23T17:05:03;27.50;79.40
6954;DHT22;3516;47.980;8.808;2022-07-23T17:07:32;27.50;79.60
6954;DHT22;3516;47.980;8.808;2022-07-23T17:09:58;27.50;79.70
6954;DHT22;3516;47.980;8.808;2022-07-23T17:12:25;27.50;79.90
6954;DHT22;3516;47.980;8.808;2022-07-23T17:14:52;27.50;80.10
6954;DHT22;3516;47.980;8.808;2022-07-23T17:17:18;27.50;80.30
6954;DHT22;3516;47.980;8.808;2022-07-23T17:19:45;27.50;80.50
6954;DHT22;3516;47.980;8.808;2022-07-23T17:22:11;27.50;80.70
6954;DHT22;3516;47.980;8.808;2022-07-23T17:24:40;27.50;81.10
6954;DHT22;3516;47.980;8.808;2022-07-23T17:27:07;27.50;81.10
6954;DHT22;3516;47.980;8.808;2022-07-23T17:29:33;27.50;81.80
6954;DHT22;3516;47.980;8.808;2022-07-23T17:32:00;27.50;81.10
6954;DHT22;3516;47.980;8.808;2022-07-23T17:34:26;27.50;81.40
6954;DHT22;3516;47.980;8.808;2022-07-23T17:36:54;27.50;81.70
6954;DHT22;3516;47.980;8.808;2022-07-23T17:39:20;27.50;82.00
6954;DHT22;3516;47.980;8.808;2022-07-23T17:41:48;27.50;82.20
6954;DHT22;3516;47.980;8.808;2022-07-23T17:44:15;27.50;82.40
6954;DHT22;3516;47.980;8.808;2022-07-23T17:46:42;27.50;82.70
6954;DHT22;3516;47.980;8.808;2022-07-23T17:49:09;27.50;83.00
6954;DHT22;3516;47.980;8.808;2022-07-23T17:51:37;27.50;83.20
6954;DHT22;3516;47.980;8.808;2022-07-23T17:54:04;27.50;83.60
6954;DHT22;3516;47.980;8.808;2022-07-23T17:56:31;27.60;83.90
6954;DHT22;3516;47.980;8.808;2022-07-23T17:59:00;27.60;84.60
6954;DHT22;3516;47.980;8.808;2022-07-23T18:01:26;27.60;84.50
6954;DHT22;3516;47.980;8.808;2022-07-23T18:03:54;27.60;84.80
6954;DHT22;3516;47.980;8.808;2022-07-23T18:06:20;27.60;85.10
6954;DHT22;3516;47.980;8.808;2022-07-23T18:08:47;27.60;85.30
6954;DHT22;3516;47.980;8.808;2022-07-23T18:11:14;27.50;85.40
6954;DHT22;3516;47.980;8.808;2022-07-23T18:13:40;27.50;85.70
6954;DHT22;3516;47.980;8.808;2022-07-23T18:16:08;27.50;85.90
6954;DHT22;3516;47.980;8.808;2022-07-23T18:18:35;27.50;86.10
6954;DHT22;3516;47.980;8.808;2022-07-23T18:21:02;27.50;86.30
6954;DHT22;3516;47.980;8.808;2022-07-23T18:23:29;27.50;86.50
6954;DHT22;3516;47.980;8.808;2022-07-23T18:25:56;27.50;86.70
6954;DHT22;3516;47.980;8.808;2022-07-23T18:28:23;27.50;86.90
6954;DHT22;3516;47.980;8.808;2022-07-23T18:30:50;27.50;86.90
6954;DHT22;3516;47.980;8.808;2022-07-23T18:33:18;27.50;86.90
6954;DHT22;3516;47.980;8.808;2022-07-23T18:35:44;27.50;86.90
6954;DHT22;3516;47.980;8.808;2022-07-23T18:38:11;27.50;86.90
6954;DHT22;3516;47.980;8.808;2022-07-23T18:40:38;27.50;86.90
6954;DHT22;3516;47.980;8.808;2022-07-23T18:43:05;27.40;86.80
6954;DHT22;3516;47.980;8.808;2022-07-23T18:45:31;27.40;86.80
6954;DHT22;3516;47.980;8.808;2022-07-23T18:47:58;27.40;87.10
6954;DHT22;3516;47.980;8.808;2022-07-23T18:50:26;27.40;86.80
6954;DHT22;3516;47.980;8.808;2022-07-23T18:52:53;27.40;86.80
6954;DHT22;3516;47.980;8.808;2022-07-23T18:55:20;27.40;86.80
6954;DHT22;3516;47.980;8.808;2022-07-23T18:57:47;27.40;86.80
6954;DHT22;3516;47.980;8.808;2022-07-23T19:00:13;27.40;86.80
6954;DHT22;3516;47.980;8.808;2022-07-23T19:02:40;27.40;86.80
6954;DHT22;3516;47.980;8.808;2022-07-23T19:05:07;27.30;86.70
6954;DHT22;3516;47.980;8.808;2022-07-23T19:07:35;27.30;86.70
6954;DHT22;3516;47.980;8.808;2022-07-23T19:10:02;27.30;86.50
6954;DHT22;3516;47.980;8.808;2022-07-23T19:12:29;27.30;86.30
6954;DHT22;3516;47.980;8.808;2022-07-23T19:14:56;27.30;86.20
6954;DHT22;3516;47.980;8.808;2022-07-23T19:17:23;27.30;86.10
6954;DHT22;3516;47.980;8.808;2022-07-23T19:19:49;27.30;86.00
6954;DHT22;3516;47.980;8.808;2022-07-23T19:22:16;27.30;85.80
6954;DHT22;3516;47.980;8.808;2022-07-23T19:24:44;27.30;85.70
6954;DHT22;3516;47.980;8.808;2022-07-23T19:27:11;27.30;85.50
6954;DHT22;3516;47.980;8.808;2022-07-23T19:29:37;27.30;85.40
6954;DHT22;3516;47.980;8.808;2022-07-23T19:32:05;27.30;85.30
6954;DHT22;3516;47.980;8.808;2022-07-23T19:34:31;27.20;85.00
6954;DHT22;3516;47.980;8.808;2022-07-23T19:36:58;27.20;84.90
6954;DHT22;3516;47.980;8.808;2022-07-23T19:39:25;27.20;84.70
6954;DHT22;3516;47.980;8.808;2022-07-23T19:41:54;27.20;84.60
6954;DHT22;3516;47.980;8.808;2022-07-23T19:44:20;27.20;84.40
6954;DHT22;3516;47.980;8.808;2022-07-23T19:46:47;27.20;84.30
6954;DHT22;3516;47.980;8.808;2022-07-23T19:49:13;27.20;84.10
6954;DHT22;3516;47.980;8.808;2022-07-23T19:51:40;27.20;83.90
6954;DHT22;3516;47.980;8.808;2022-07-23T19:54:07;27.20;83.80
6954;DHT22;3516;47.980;8.808;2022-07-23T19:56:33;27.20;83.60